East Arlington, Vermont
Current Conditions -  °F | °C
As of 7:54 AM on Saturday 25 Oct 2014 (Local Time) from KDDH Reporting Station
Haze Haze  
Wind Chill: 42°   Ceiling: 1200
Heat Index: 42°   Visibility: 5mi
Dew Point: 40°   Wind: 0mph
Humidity: 92%   Direction: NA
Pressure: 29.82"   Gusts: NA
Location:  43.06°N, 73.14°W
Report Text: KDDH 251154Z AUTO 00000KT 5SM BR OVC012 06/04 A2982 RMK AO2 SLP100 T00560044 10067 20011 58002
Loading
Personal Weather Stations






























Interactive Weather Map
Tropical Storm Tracking
New forecast layout! Learn more

10-Day Weather Forecast

Advertisements
Track Severe Weather on mobile